Hlavní strana
METAR-TAF:

METAR-TAF

Letiště :

Ouarzazate, Maroko

zeměpisná šířka: 30-56N, zeměpisná délka: 006-54W, výška: 1139 m

Aktuální stav počasí

Zpráva byla vytvořena před 14 minutami, v 06:30 UTC
vítr z různých směrů 1 kt
Teplota 22°C
Vlhkost vzduchu 25%
Tlak 1014 hPa
Viditelnost: 4000 m
zákal

METAR: GMMZ 300630Z VRB01KT 4000 HZ NSC 22/01 Q1014 NOSIG

Čas: 07:44 (06:44 UTC)

Předpověď počasí

Zpráva byla vytvořena před 1 hodinou a 44 minutami, v 05:00 UTC
Předpověď platná od 30 v 06 UTC do 31 v 12 UTC
Západoseverozápadní vítr 5 kt
Viditelnost: 5000 m
Změna
od 30 v 07 UTC do 30 v 09 UTC
Viditelnost: 4000 m
zákal
Změna
od 30 v 11 UTC do 30 v 14 UTC
Jihojihovýchodní vítr 16 kt
Viditelnost: 3000 m
rozsáhlý prach
Změna
od 30 v 20 UTC do 30 v 23 UTC
Západní vítr 5 kt
Viditelnost: 4000 m
zákal

TAF: GMMZ 300500Z 3006/3112 30005KT 5000 NSC BECMG 3007/3009 4000 HZ NSC BECMG 3011/3014 16016KT 3000 DU BECMG 3020/3023 26005KT 4000 HZ

Stav a předpovědi počasí z více než 4 000 letišť (zprávy METAR a TAF).

Červené a žluté tečky na mapě představují dostupné meteorologické stanice.

Když kurzor umístíte na tečku, zobrazí se název stanice.

Pak kliknutím zobrazíte stav a předpověď počasí.

Chcete-li změnit mapu, kliknutím na zelené tlačítko se znaménkem +mapu přiblížíte, kliknutím na zelené tlačítko se znaménkem – mapu oddálíte a kliknutím na zelené šipky přejdete na sousední mapy.


METAR-TAF: